createdAt,value
2018-02-11T00:01:56.983Z,1.10
2018-02-11T00:05:59.493Z,1.10
2018-02-11T00:10:02.013Z,1.10
2018-02-11T00:14:04.531Z,1.10
2018-02-11T00:18:07.240Z,1.10
2018-02-11T00:22:11.440Z,1.20
2018-02-11T00:26:14.005Z,1.10
2018-02-11T00:30:16.515Z,1.10
2018-02-11T00:34:19.041Z,1.20
2018-02-11T00:38:21.566Z,1.20
2018-02-11T00:42:24.098Z,1.20
2018-02-11T00:46:27.376Z,1.20
2018-02-11T00:50:29.928Z,1.20
2018-02-11T00:54:32.453Z,1.20
2018-02-11T00:58:34.981Z,1.20
2018-02-11T01:02:37.523Z,1.30
2018-02-11T01:06:40.048Z,1.20
2018-02-11T01:10:42.547Z,1.20
2018-02-11T01:14:45.174Z,1.30
2018-02-11T01:18:47.708Z,1.30
2018-02-11T01:22:50.240Z,1.30
2018-02-11T01:26:52.773Z,1.30
2018-02-11T01:30:55.306Z,1.30
2018-02-11T01:34:57.808Z,1.40
2018-02-11T01:39:00.349Z,1.30
2018-02-11T01:43:02.863Z,1.40
2018-02-11T01:47:05.405Z,1.40
2018-02-11T01:51:07.917Z,1.40
2018-02-11T01:55:10.445Z,1.40
2018-02-11T01:59:12.948Z,1.40
2018-02-11T02:03:16.236Z,1.50
2018-02-11T02:07:18.738Z,1.40
2018-02-11T02:11:22.038Z,1.40
2018-02-11T02:15:25.303Z,1.40
2018-02-11T02:19:27.840Z,1.40
2018-02-11T02:23:30.925Z,1.40
2018-02-11T02:27:34.224Z,1.40
2018-02-11T02:31:37.494Z,1.40
2018-02-11T02:35:40.028Z,1.40
2018-02-11T02:39:43.298Z,1.40
2018-02-11T02:43:45.828Z,1.40
2018-02-11T02:47:48.346Z,1.40
2018-02-11T02:51:50.892Z,1.40
2018-02-11T02:55:54.412Z,1.40
2018-02-11T02:59:57.587Z,1.40
2018-02-11T03:04:00.860Z,1.40
2018-02-11T03:08:03.390Z,1.40
2018-02-11T03:12:05.927Z,1.40
2018-02-11T03:16:08.476Z,1.50
2018-02-11T03:20:10.994Z,1.50
2018-02-11T03:24:13.572Z,1.50
2018-02-11T03:28:16.076Z,1.50
2018-02-11T03:32:18.600Z,1.50
2018-02-11T03:36:21.872Z,1.60
2018-02-11T03:40:24.402Z,1.60
2018-02-11T03:44:26.904Z,1.60
2018-02-11T03:48:29.436Z,1.60
2018-02-11T03:52:31.948Z,1.50
2018-02-11T03:56:35.270Z,1.50
2018-02-11T04:00:37.786Z,1.50
2018-02-11T04:04:40.410Z,1.50
2018-02-11T04:08:42.984Z,1.50
2018-02-11T04:12:45.512Z,1.60
2018-02-11T04:16:48.017Z,1.60
2018-02-11T04:20:50.545Z,1.60
2018-02-11T04:24:53.053Z,1.60
2018-02-11T04:28:56.343Z,1.60
2018-02-11T04:32:59.611Z,1.70
2018-02-11T04:37:02.159Z,1.60
2018-02-11T04:41:04.661Z,1.60
2018-02-11T04:45:07.180Z,1.60
2018-02-11T04:49:09.707Z,1.60
2018-02-11T04:53:13.089Z,1.50
2018-02-11T04:57:15.614Z,1.50
2018-02-11T05:01:18.127Z,1.50
2018-02-11T05:05:20.655Z,1.50
2018-02-11T05:09:23.940Z,1.50
2018-02-11T05:13:26.471Z,1.50
2018-02-11T05:17:28.977Z,1.50
2018-02-11T05:21:31.550Z,1.50
2018-02-11T05:25:34.061Z,1.50
2018-02-11T05:29:36.591Z,1.50
2018-02-11T05:33:39.906Z,1.50
2018-02-11T05:37:42.412Z,1.50
2018-02-11T05:41:44.947Z,1.50
2018-02-11T05:45:47.534Z,1.60
2018-02-11T05:49:50.101Z,1.60
2018-02-11T05:53:52.611Z,1.50
2018-02-11T05:57:55.164Z,1.50
2018-02-11T06:01:57.695Z,1.50
2018-02-11T06:06:00.998Z,1.50
2018-02-11T06:10:04.272Z,1.40
2018-02-11T06:14:06.807Z,1.40
2018-02-11T06:18:09.441Z,1.30
2018-02-11T06:22:11.981Z,1.30
2018-02-11T06:26:14.497Z,1.30
2018-02-11T06:30:17.033Z,1.30
2018-02-11T06:34:20.356Z,1.30
2018-02-11T06:38:22.864Z,1.30
2018-02-11T06:42:25.711Z,1.30
2018-02-11T06:46:29.480Z,1.30
2018-02-11T06:50:33.858Z,1.20
2018-02-11T06:54:36.405Z,1.20
2018-02-11T06:58:38.927Z,1.20
2018-02-11T07:02:42.227Z,1.20
2018-02-11T07:06:44.767Z,1.20
2018-02-11T07:10:47.279Z,1.20
2018-02-11T07:14:49.824Z,1.20
2018-02-11T07:18:52.346Z,1.30
2018-02-11T07:22:54.877Z,1.30
2018-02-11T07:26:57.393Z,1.30
2018-02-11T07:30:59.911Z,1.30
2018-02-11T07:35:02.436Z,1.30
2018-02-11T07:39:04.966Z,1.30
2018-02-11T07:43:07.508Z,1.30
2018-02-11T07:47:10.013Z,1.30
2018-02-11T07:51:12.555Z,1.30
2018-02-11T07:55:15.062Z,1.20
2018-02-11T07:59:17.621Z,1.20
2018-02-11T08:03:20.154Z,1.10
2018-02-11T08:07:22.691Z,1.10
2018-02-11T08:11:25.213Z,1.10
2018-02-11T08:15:27.753Z,1.10
2018-02-11T08:19:30.262Z,1.00
2018-02-11T08:23:33.577Z,1.10
2018-02-11T08:27:36.864Z,1.00
2018-02-11T08:31:40.165Z,1.00
2018-02-11T08:35:42.673Z,1.00
2018-02-11T08:39:45.967Z,1.10
2018-02-11T08:43:49.259Z,1.10
2018-02-11T08:47:52.557Z,1.10
2018-02-11T08:51:55.083Z,1.00
2018-02-11T08:55:57.612Z,1.10
2018-02-11T09:00:00.195Z,1.10
2018-02-11T09:04:02.773Z,1.20
2018-02-11T09:08:05.424Z,1.30
2018-02-11T09:12:07.951Z,1.30
2018-02-11T09:16:10.485Z,1.30
2018-02-11T09:20:13.381Z,1.30
2018-02-11T09:24:16.659Z,1.30
2018-02-11T09:28:19.890Z,1.30
2018-02-11T09:32:23.162Z,1.20
2018-02-11T09:36:25.692Z,1.20
2018-02-11T09:40:28.199Z,1.10
2018-02-11T09:44:30.730Z,1.10
2018-02-11T09:48:33.995Z,1.20
2018-02-11T09:52:36.536Z,1.20
2018-02-11T09:56:39.829Z,1.30
2018-02-11T10:00:43.143Z,1.40
2018-02-11T10:04:46.468Z,1.50
2018-02-11T10:08:50.308Z,1.50
2018-02-11T10:12:52.829Z,1.50
2018-02-11T10:16:55.361Z,1.50
2018-02-11T10:20:57.882Z,1.50
2018-02-11T10:25:00.434Z,1.50
2018-02-11T10:29:02.940Z,1.60
2018-02-11T10:33:06.242Z,1.60
2018-02-11T10:37:08.741Z,1.60
2018-02-11T10:41:11.271Z,1.60
2018-02-11T10:45:14.562Z,1.80
2018-02-11T10:49:17.090Z,1.80
2018-02-11T10:53:19.652Z,1.80
2018-02-11T10:57:22.172Z,1.90
2018-02-11T11:01:24.738Z,1.90
2018-02-11T11:05:28.322Z,2.20
2018-02-11T11:09:31.593Z,2.20
2018-02-11T11:13:34.115Z,2.20
2018-02-11T11:17:37.385Z,2.30
2018-02-11T11:21:50.697Z,2.30
2018-02-11T11:25:53.839Z,2.40
2018-02-11T11:29:57.247Z,2.80
2018-02-11T11:34:00.164Z,2.70
2018-02-11T11:38:03.443Z,3.00
2018-02-11T11:42:05.984Z,3.00
2018-02-11T11:46:08.781Z,3.20
2018-02-11T11:50:11.308Z,3.30
2018-02-11T11:54:13.910Z,3.40
2018-02-11T11:58:17.191Z,3.60
2018-02-11T12:02:19.848Z,3.60
2018-02-11T12:06:22.438Z,3.70
2018-02-11T12:10:24.973Z,4.00
2018-02-11T12:14:28.324Z,4.30
2018-02-11T12:18:30.844Z,4.20
2018-02-11T12:22:33.381Z,4.10
2018-02-11T12:26:35.926Z,4.10
2018-02-11T12:30:39.242Z,4.20
2018-02-11T12:34:42.514Z,4.20
2018-02-11T12:38:45.058Z,4.10
2018-02-11T12:42:47.571Z,4.20
2018-02-11T12:46:50.210Z,4.20
2018-02-11T12:50:53.483Z,4.30
2018-02-11T12:54:56.053Z,4.30
2018-02-11T12:58:58.548Z,4.30
2018-02-11T13:03:01.075Z,4.40
2018-02-11T13:07:04.368Z,4.40
2018-02-11T13:11:07.667Z,4.50
2018-02-11T13:15:10.953Z,4.40
2018-02-11T13:19:13.476Z,4.40
2018-02-11T13:23:16.048Z,4.30
2018-02-11T13:27:18.563Z,4.20
2018-02-11T13:31:21.082Z,4.10
2018-02-11T13:35:23.650Z,4.10
2018-02-11T13:39:26.286Z,4.10
2018-02-11T13:43:28.843Z,4.00
2018-02-11T13:47:31.338Z,4.00
2018-02-11T13:51:33.951Z,4.00
2018-02-11T13:55:37.235Z,4.10
2018-02-11T13:59:39.764Z,4.00
2018-02-11T14:03:42.272Z,4.10
2018-02-11T14:07:45.135Z,4.20
2018-02-11T14:11:47.665Z,4.20
2018-02-11T14:15:50.251Z,4.20
2018-02-11T14:19:52.732Z,4.10
2018-02-11T14:23:55.272Z,4.10
2018-02-11T14:27:58.538Z,3.90
2018-02-11T14:32:01.079Z,3.90
2018-02-11T14:36:03.610Z,3.80
2018-02-11T14:40:06.245Z,3.70
2018-02-11T14:44:08.789Z,3.70
2018-02-11T14:48:11.333Z,3.70
2018-02-11T14:52:13.856Z,3.60
2018-02-11T14:56:16.402Z,3.60
2018-02-11T15:00:18.930Z,3.60
2018-02-11T15:04:21.474Z,3.60
2018-02-11T15:08:23.988Z,3.70
2018-02-11T15:12:26.520Z,3.70
2018-02-11T15:16:29.868Z,3.70
2018-02-11T15:20:32.416Z,3.70
2018-02-11T15:24:35.843Z,3.70
2018-02-11T15:28:38.524Z,3.60
2018-02-11T15:32:41.326Z,3.70
2018-02-11T15:36:43.892Z,3.70
2018-02-11T15:40:47.160Z,3.60
2018-02-11T15:44:49.724Z,3.60
2018-02-11T15:48:52.234Z,3.60
2018-02-11T15:52:54.767Z,3.60
2018-02-11T15:56:57.343Z,3.60
2018-02-11T16:00:59.857Z,3.50
2018-02-11T16:05:02.488Z,3.50
2018-02-11T16:09:04.984Z,3.50
2018-02-11T16:13:08.333Z,3.70
2018-02-11T16:17:10.916Z,3.70
2018-02-11T16:21:13.504Z,3.70
2018-02-11T16:25:16.116Z,3.80
2018-02-11T16:29:18.709Z,3.70
2018-02-11T16:33:21.352Z,3.50
2018-02-11T16:37:23.967Z,3.40
2018-02-11T16:41:26.558Z,3.40
2018-02-11T16:45:29.952Z,3.20
2018-02-11T16:49:32.508Z,3.20
2018-02-11T16:53:35.859Z,3.30
2018-02-11T16:57:38.445Z,3.30
2018-02-11T17:01:41.055Z,3.50
2018-02-11T17:05:43.633Z,3.50
2018-02-11T17:09:46.220Z,3.50
2018-02-11T17:13:48.812Z,3.50
2018-02-11T17:17:52.217Z,3.50
2018-02-11T17:21:54.801Z,3.50
2018-02-11T17:25:57.409Z,3.60
2018-02-11T17:30:00.028Z,3.90
2018-02-11T17:34:02.610Z,4.00
2018-02-11T17:38:06.032Z,3.80
2018-02-11T17:42:08.665Z,3.80
2018-02-11T17:46:11.232Z,3.50
2018-02-11T17:50:13.795Z,3.30
2018-02-11T17:54:16.454Z,3.20
2018-02-11T17:58:19.782Z,2.90
2018-02-11T18:02:22.374Z,2.90
2018-02-11T18:06:24.868Z,2.80
2018-02-11T18:10:27.394Z,2.70
2018-02-11T18:14:29.961Z,2.60
2018-02-11T18:18:32.487Z,2.50
2018-02-11T18:22:35.825Z,2.20
2018-02-11T18:26:38.357Z,2.20
2018-02-11T18:30:40.894Z,2.20
2018-02-11T18:34:43.397Z,2.20
2018-02-11T18:38:45.929Z,2.20
2018-02-11T18:42:49.754Z,2.20
2018-02-11T18:46:52.629Z,2.30
2018-02-11T18:50:55.139Z,2.40
2018-02-11T18:54:58.467Z,2.60
2018-02-11T18:59:00.997Z,2.50
2018-02-11T19:03:03.520Z,2.60
2018-02-11T19:07:06.848Z,2.70
2018-02-11T19:11:09.392Z,2.70
2018-02-11T19:15:11.908Z,2.70
2018-02-11T19:19:14.474Z,2.80
2018-02-11T19:23:17.798Z,2.90
2018-02-11T19:27:20.363Z,2.80
2018-02-11T19:31:23.653Z,2.90
2018-02-11T19:35:26.181Z,2.90
2018-02-11T19:39:28.720Z,2.90
2018-02-11T19:43:31.293Z,2.80
2018-02-11T19:47:33.831Z,2.80
2018-02-11T19:51:36.381Z,2.60
2018-02-11T19:55:38.900Z,2.50
2018-02-11T19:59:42.358Z,2.40
2018-02-11T20:03:44.905Z,2.30
2018-02-11T20:07:47.451Z,2.20
2018-02-11T20:11:49.985Z,2.20
2018-02-11T20:15:52.539Z,2.10
2018-02-11T20:19:55.806Z,2.40
2018-02-11T20:23:58.374Z,2.30
2018-02-11T20:28:01.668Z,2.60
2018-02-11T20:32:04.208Z,2.60
2018-02-11T20:36:06.719Z,2.80
2018-02-11T20:40:09.275Z,2.90
2018-02-11T20:44:11.795Z,3.00
2018-02-11T20:48:14.338Z,3.10
2018-02-11T20:52:16.859Z,3.20
2018-02-11T20:56:19.392Z,3.30
2018-02-11T21:00:21.901Z,3.30
2018-02-11T21:04:24.444Z,3.40
2018-02-11T21:08:27.733Z,3.50
2018-02-11T21:12:30.304Z,3.50
2018-02-11T21:16:32.826Z,3.50
2018-02-11T21:20:35.362Z,3.40
2018-02-11T21:24:38.653Z,3.40
2018-02-11T21:28:41.180Z,3.40
2018-02-11T21:32:43.708Z,3.30
2018-02-11T21:36:46.976Z,3.40
2018-02-11T21:40:49.503Z,3.30
2018-02-11T21:44:58.251Z,3.30
2018-02-11T21:49:01.215Z,3.30
2018-02-11T21:53:03.744Z,3.30
2018-02-11T21:57:07.049Z,3.20
2018-02-11T22:01:10.454Z,3.20
2018-02-11T22:05:13.740Z,3.20
2018-02-11T22:09:16.271Z,3.20
2018-02-11T22:13:18.811Z,3.20
2018-02-11T22:17:21.319Z,3.20
2018-02-11T22:21:24.675Z,3.10
2018-02-11T22:25:27.274Z,3.10
2018-02-11T22:29:29.815Z,3.10
2018-02-11T22:33:32.362Z,3.10
2018-02-11T22:37:34.883Z,3.10
2018-02-11T22:41:37.396Z,3.10
2018-02-11T22:45:39.916Z,3.10
2018-02-11T22:49:42.449Z,3.20
2018-02-11T22:53:44.977Z,3.20
2018-02-11T22:57:47.523Z,3.20
2018-02-11T23:01:50.051Z,3.30
2018-02-11T23:05:52.566Z,3.30
2018-02-11T23:09:55.852Z,3.20
2018-02-11T23:13:58.392Z,3.20
2018-02-11T23:18:00.887Z,3.20
2018-02-11T23:22:03.418Z,3.20
2018-02-11T23:26:06.694Z,3.20
2018-02-11T23:30:09.213Z,3.20
2018-02-11T23:34:12.508Z,3.30
2018-02-11T23:38:15.036Z,3.30
2018-02-11T23:42:18.247Z,3.30
2018-02-11T23:46:20.798Z,3.20
2018-02-11T23:50:24.101Z,3.30
2018-02-11T23:54:27.446Z,3.30
2018-02-11T23:58:29.940Z,3.30
